Flight Track Log - Related Links

Times and Time Zones

All times are in EDT time to prevent confusion due to time zone crossing. See the JZA8106 flight status page for this flight to view local times or setup timezone preferences in your user account.

Time Position Orientation Groundspeed Altitude Reporting Facility
EDT Latitude Longitude Course Direction KTS MPH feet Rate Location/Type
Fri 09:17:44 PM 51.1000 -114.0333 360° North 10 12 3,600  Level Edmonton Center
Fri 09:22:44 PM 51.1000 -114.0333 270° West 10 12 3,600 140 Level Edmonton Center
Fri 09:23:26 PM 51.0500 -114.0500 192° South 180 207 4,400 1,588 Climbing Edmonton Center
Fri 09:24:26 PM 51.0000 -114.0500 180° South 220 253 6,300 1,850 Climbing Edmonton Center
Fri 09:25:26 PM 50.9333 -114.0333 171° South 270 311 8,100 2,100 Climbing Edmonton Center
Fri 09:26:26 PM 50.8500 -113.9833 159° South 290 334 10,500 1,850 Climbing Edmonton Center
Fri 09:27:26 PM 50.7500 -113.9667 174° South 330 380 11,800 1,300 Climbing Edmonton Center
Fri 09:28:26 PM 50.6500 -113.9167 162° South 390 449 13,100 1,550 Climbing Edmonton Center
Fri 09:29:26 PM 50.5333 -113.8667 165° South 400 460 14,900 1,850 Climbing Edmonton Center
Fri 09:30:26 PM 50.4167 -113.8167 165° South 420 483 16,800 1,900 Climbing Edmonton Center
Fri 09:31:26 PM 50.3167 -113.7667 162° South 430 495 18,700 1,700 Climbing Edmonton Center
Fri 09:32:26 PM 50.2000 -113.7000 160° South 440 506 20,200 1,500 Climbing Edmonton Center
Fri 09:33:26 PM 50.1000 -113.5667 139° Southeast 450 518 21,700 1,400 Climbing Edmonton Center
Fri 09:34:26 PM 50.0167 -113.4500 138° Southeast 460 529 23,000 1,200 Climbing Edmonton Center
Fri 09:35:26 PM 49.9167 -113.3000 136° Southeast 470 541 24,100 1,100 Climbing Edmonton Center
Fri 09:36:26 PM 49.8167 -113.1667 139° Southeast 480 552 25,200 1,050 Climbing Edmonton Center
Fri 09:37:26 PM 49.7000 -113.0167 140° Southeast 490 564 26,200 1,400 Climbing Edmonton Center
Fri 09:38:26 PM 49.6000 -112.8667 136° Southeast 480 552 28,000 1,550 Climbing Edmonton Center
Fri 09:39:26 PM 49.5000 -112.7500 143° Southeast 480 552 29,300 1,350 Climbing Edmonton Center
Fri 09:40:26 PM 49.4000 -112.6000 136° Southeast 470 541 30,700 1,250 Climbing Edmonton Center
Fri 09:41:26 PM 49.3000 -112.4833 143° Southeast 470 541 31,800 1,250 Climbing Edmonton Center
Fri 09:42:26 PM 49.2000 -112.3333 136° Southeast 470 541 33,200 1,150 Climbing Edmonton Center
Fri 09:43:26 PM 49.1000 -112.2167 143° Southeast 460 529 34,100 900 Climbing Edmonton Center
Fri 09:44:26 PM 49.0167 -112.0833 134° Southeast 460 529 35,000 700 Climbing Edmonton Center
Fri 09:45:26 PM 48.9000 -111.9500 143° Southeast 470 541 35,500 750 Climbing Edmonton Center
Fri 09:46:26 PM 48.8167 -111.8333 137° Southeast 470 541 36,500 600 Climbing Edmonton Center
Fri 09:47:26 PM 48.7167 -111.7000 139° Southeast 470 541 36,700 250 Climbing Edmonton Center
Fri 09:48:26 PM 48.6000 -111.5833 147° Southeast 470 541 37,000 205 Climbing Edmonton Center
Fri 09:48:54 PM 48.6092 -111.5164 78° East 477 549 37,000  Level Salt Lake Center
Fri 09:49:56 PM 48.5053 -111.3842 140° Southeast 484 557 37,000  Level Salt Lake Center
Fri 09:50:57 PM 48.4008 -111.2519 140° Southeast 488 562 37,000  Level Salt Lake Center
Fri 09:51:59 PM 48.2953 -111.1183 140° Southeast 492 566 37,000  Level Salt Lake Center
Fri 09:53:00 PM 48.1700 -110.9594 140° Southeast 491 565 37,000  Level Salt Lake Center
Fri 09:54:02 PM 48.0639 -110.8297 141° Southeast 489 563 37,000  Level Salt Lake Center
Fri 09:55:03 PM 47.9572 -110.6983 140° Southeast 493 567 37,000  Level Salt Lake Center
Fri 09:56:05 PM 47.8508 -110.5672 140° Southeast 493 567 37,000  Level Salt Lake Center
Fri 09:57:06 PM 47.7458 -110.4394 141° Southeast 488 562 37,000  Level Salt Lake Center
Fri 09:58:08 PM 47.6422 -110.3103 140° Southeast 487 560 37,000  Level Salt Lake Center
Fri 09:59:09 PM 47.5356 -110.1853 142° Southeast 487 560 37,000 -49 Level Salt Lake Center
Fri 10:00:11 PM 47.4319 -110.0592 141° Southeast 483 556 36,900  Descending Salt Lake Center
Fri 10:01:13 PM 47.3272 -109.9331 141° Southeast 485 558 37,000  Climbing Salt Lake Center
Fri 10:02:14 PM 47.2236 -109.8083 141° Southeast 483 556 36,900  Descending Salt Lake Center
Fri 10:03:16 PM 47.1000 -109.6572 140° Southeast 483 556 37,000 49 Climbing Salt Lake Center
Fri 10:04:17 PM 46.9906 -109.5411 144° Southeast 485 558 37,000  Level Salt Lake Center
Fri 10:05:19 PM 46.8753 -109.4408 149° Southeast 482 555 37,000  Level Salt Lake Center
Fri 10:06:20 PM 46.7600 -109.3372 148° Southeast 486 559 37,000  Level Salt Lake Center
Fri 10:07:22 PM 46.6361 -109.2292 149° Southeast 492 566 37,000  Level Salt Lake Center
Fri 10:08:23 PM 46.5267 -109.1314 148° Southeast 484 557 37,000  Level Salt Lake Center
Fri 10:09:25 PM 46.3972 -109.0167 149° Southeast 487 560 37,000  Level Salt Lake Center
Fri 10:10:26 PM 46.2858 -108.9189 149° Southeast 487 560 37,000  Level Salt Lake Center
Fri 10:11:28 PM 46.1564 -108.8050 149° Southeast 488 562 37,000  Level Salt Lake Center
Fri 10:12:30 PM 46.0447 -108.7072 149° Southeast 489 563 37,000  Level Salt Lake Center
Fri 10:13:31 PM 45.9333 -108.6103 149° Southeast 489 563 37,000  Level Salt Lake Center
Fri 10:14:33 PM 45.8039 -108.4969 149° Southeast 488 562 37,000  Level Salt Lake Center
Fri 10:15:34 PM 45.6903 -108.4006 149° Southeast 493 567 37,000  Level Salt Lake Center
Fri 10:16:36 PM 45.5578 -108.2875 149° Southeast 498 573 37,000  Level Salt Lake Center
Fri 10:17:37 PM 45.4456 -108.1911 149° Southeast 493 567 37,000  Level Salt Lake Center
Fri 10:18:39 PM 45.3128 -108.0792 149° Southeast 493 567 37,000  Level Salt Lake Center
Fri 10:19:40 PM 45.2000 -107.9836 149° Southeast 492 566 37,000  Level Salt Lake Center
Fri 10:20:42 PM 45.0872 -107.8886 149° Southeast 489 563 37,000 49 Level Salt Lake Center
Fri 10:21:43 PM 44.9556 -107.7767 149° Southeast 486 559 37,100  Climbing Salt Lake Center
Fri 10:22:45 PM 44.8383 -107.6803 150° Southeast 495 570 37,000  Descending Salt Lake Center
Fri 10:23:47 PM 44.7236 -107.5858 150° Southeast 492 566 37,100  Climbing Salt Lake Center
Fri 10:24:48 PM 44.5906 -107.4764 150° Southeast 494 568 37,000  Descending Salt Lake Center
Fri 10:25:50 PM 44.4761 -107.3831 150° Southeast 495 570 37,100  Climbing Salt Lake Center
Fri 10:26:51 PM 44.3622 -107.2894 150° Southeast 496 571 37,000 -49 Descending Salt Lake Center
Fri 10:27:53 PM 44.2300 -107.1817 150° Southeast 493 567 37,000  Level Salt Lake Center
Fri 10:28:55 PM 44.1167 -107.0906 150° Southeast 493 567 37,000  Level Salt Lake Center
Fri 10:29:56 PM 43.9847 -106.9831 150° Southeast 492 566 37,000  Level Salt Lake Center
Fri 10:30:58 PM 43.8661 -106.8936 151° Southeast 497 572 37,000  Level Salt Lake Center
Fri 10:32:00 PM 43.7517 -106.8031 150° Southeast 496 571 37,000  Level Salt Lake Center
Fri 10:33:02 PM 43.6214 -106.6947 149° Southeast 494 568 37,000  Level Salt Lake Center
Fri 10:33:53 PM 43.5264 -106.6192 150° Southeast 494 568 37,000  Level Denver Center
Fri 10:34:55 PM 43.3931 -106.5147 150° Southeast 494 568 37,000  Level Denver Center
Fri 10:35:57 PM 43.2792 -106.4253 150° Southeast 494 568 37,000  Level Denver Center
Fri 10:36:59 PM 43.1453 -106.3211 150° Southeast 495 570 37,000  Level Denver Center
Fri 10:38:00 PM 43.0319 -106.2289 149° Southeast 499 574 37,000  Level Denver Center
Fri 10:39:02 PM 42.9014 -106.1144 147° Southeast 502 578 37,000  Level Denver Center
Fri 10:40:04 PM 42.7914 -106.0175 147° Southeast 496 571 37,000  Level Denver Center
Fri 10:41:06 PM 42.6794 -105.9217 148° Southeast 497 572 37,000  Level Denver Center
Fri 10:42:08 PM 42.5489 -105.8086 147° Southeast 498 573 37,000  Level Denver Center
Fri 10:43:09 PM 42.4364 -105.7133 148° Southeast 499 574 37,000  Level Denver Center
Fri 10:44:11 PM 42.3058 -105.6017 148° Southeast 501 577 37,000  Level Denver Center
Fri 10:45:13 PM 42.1939 -105.5061 148° Southeast 499 574 37,000  Level Denver Center
Fri 10:46:14 PM 42.0622 -105.3953 148° Southeast 502 578 37,000  Level Denver Center
Fri 10:47:16 PM 41.9492 -105.3017 148° Southeast 501 577 37,000  Level Denver Center
Fri 10:48:18 PM 41.8181 -105.1925 148° Southeast 500 575 37,000  Level Denver Center
Fri 10:49:19 PM 41.7047 -105.0978 148° Southeast 501 577 37,000  Level Denver Center
Fri 10:50:21 PM 41.5725 -104.9883 148° Southeast 502 578 37,000  Level Denver Center
Fri 10:51:23 PM 41.4589 -104.8942 148° Southeast 502 578 37,000  Level Denver Center
Fri 10:52:24 PM 41.3458 -104.8017 148° Southeast 500 575 37,000  Level Denver Center
Fri 10:53:26 PM 41.2139 -104.6936 148° Southeast 499 574 37,000  Level Denver Center
Fri 10:54:28 PM 41.1003 -104.6008 148° Southeast 500 575 37,000  Level Denver Center
Fri 10:55:29 PM 40.9769 -104.5014 149° Southeast 501 577 37,000  Level Denver Center
Fri 10:56:31 PM 40.8572 -104.4042 148° Southeast 500 575 37,000  Level Denver Center
Fri 10:57:32 PM 40.7372 -104.3067 148° Southeast 501 577 37,000  Level Denver Center
Fri 10:58:34 PM 40.6169 -104.2119 149° Southeast 498 573 37,000  Level Denver Center
Fri 10:59:47 PM 40.4556 -104.0831 149° Southeast 504 580 37,000  Level Denver Center
Fri 11:01:01 PM 40.3372 -103.9869 148° Southeast 496 571 37,000  Level Denver Center
Fri 11:02:03 PM 40.2036 -103.8556 143° Southeast 506 582 37,000  Level Denver Center
Fri 11:03:04 PM 40.0886 -103.7439 143° Southeast 509 586 37,000  Level Denver Center
Fri 11:04:06 PM 39.9739 -103.6353 144° Southeast 503 579 37,000  Level Denver Center
Fri 11:05:07 PM 39.8575 -103.5247 144° Southeast 508 585 37,000  Level Denver Center
Fri 11:06:09 PM 39.7417 -103.4136 144° Southeast 510 587 37,000  Level Denver Center
Fri 11:07:10 PM 39.6261 -103.3039 144° Southeast 508 585 37,000  Level Denver Center
Fri 11:08:12 PM 39.5103 -103.1947 144° Southeast 508 585 37,000  Level Denver Center
Fri 11:09:13 PM 39.3931 -103.0856 144° Southeast 512 589 37,000  Level Denver Center
Fri 11:10:14 PM 39.2583 -102.9592 144° Southeast 508 585 37,000  Level Denver Center
Fri 11:11:16 PM 39.1425 -102.8514 144° Southeast 509 586 37,000  Level Denver Center
Fri 11:12:17 PM 39.0247 -102.7428 144° Southeast 511 588 37,000  Level Denver Center
Fri 11:13:19 PM 38.9139 -102.6417 145° Southeast 511 588 37,000  Level Denver Center
Fri 11:14:20 PM 38.8039 -102.5392 144° Southeast 510 587 37,000  Level Denver Center
Fri 11:15:22 PM 38.6753 -102.4214 144° Southeast 510 587 37,000  Level Denver Center
Fri 11:16:23 PM 38.5642 -102.3197 144° Southeast 512 589 37,000  Level Denver Center
Fri 11:17:24 PM 38.4347 -102.2011 144° Southeast 513 590 37,000  Level Denver Center
Fri 11:18:38 PM 38.3217 -102.1000 145° Southeast 517 595 37,000  Level Denver Center
Fri 11:19:52 PM 38.1692 -101.9683 146° Southeast 518 596 37,000  Level Denver Center
Fri 11:20:53 PM 38.0364 -101.8533 146° Southeast 520 598 37,000 49 Level Denver Center
Fri 11:21:55 PM 37.9014 -101.7406 147° Southeast 522 601 37,100  Climbing Denver Center
Fri 11:22:56 PM 37.7883 -101.6425 146° Southeast 517 595 37,000 -65 Descending Denver Center
Fri 11:23:28 PM 37.7122 -101.5781 146° Southeast 518 596 37,000 1,226 Level Kansas City Center
Fri 11:24:29 PM 37.6017 -101.4847 146° Southeast 503 579 38,900 976 Climbing Kansas City Center
Fri 11:25:31 PM 37.4950 -101.3953 146° Southeast 487 560 39,000 49 Climbing Kansas City Center
Fri 11:26:31 PM 37.3678 -101.2881 146° Southeast 494 568 39,000  Level Kansas City Center
Fri 11:27:31 PM 37.2578 -101.1956 146° Southeast 499 574 39,000  Level Kansas City Center
Fri 11:28:32 PM 37.1461 -101.1025 146° Southeast 503 579 39,000  Level Kansas City Center
Fri 11:29:33 PM 37.0144 -100.9928 146° Southeast 508 585 39,000 49 Level Kansas City Center
Fri 11:30:35 PM 36.9003 -100.8986 147° Southeast 512 589 39,100  Climbing Kansas City Center
Fri 11:31:36 PM 36.7681 -100.7906 147° Southeast 510 587 39,000 -50 Descending Kansas City Center
Fri 11:32:35 PM 36.6556 -100.6956 146° Southeast 510 587 39,000  Level Kansas City Center
Fri 11:33:37 PM 36.5428 -100.6039 147° Southeast 507 583 39,000  Level Kansas City Center
Fri 11:34:38 PM 36.4303 -100.5147 147° Southeast 505 581 39,000  Level Kansas City Center
Fri 11:35:41 PM 36.2897 -100.3964 146° Southeast 507 583 39,000  Level Albuquerque Center
Fri 11:36:41 PM 36.1703 -100.3014 147° Southeast 510 587 39,000  Level Kansas City Center
Fri 11:37:42 PM 36.0514 -100.2053 147° Southeast 510 587 39,000  Level Kansas City Center
Fri 11:38:40 PM 35.9322 -100.1100 147° Southeast 510 587 39,000  Level Kansas City Center
Fri 11:39:44 PM 35.8156 -100.0158 147° Southeast 506 582 39,000  Level Kansas City Center
Fri 11:40:44 PM 35.6981 -99.9231 147° Southeast 504 580 39,000  Level Kansas City Center
Fri 11:41:48 PM 35.5808 -99.8292 147° Southeast 504 580 39,000  Level Albuquerque Center
Fri 11:42:50 PM 35.4392 -99.7169 147° Southeast 506 582 39,000  Level Albuquerque Center
Fri 11:43:51 PM 35.3214 -99.6244 147° Southeast 506 582 39,000  Level Albuquerque Center
Fri 11:44:52 PM 35.2025 -99.5311 147° Southeast 506 582 39,000  Level Albuquerque Center
Fri 11:45:53 PM 35.0847 -99.4383 147° Southeast 505 581 39,000  Level Albuquerque Center
Fri 11:46:55 PM 34.9656 -99.3458 148° Southeast 507 583 39,000  Level Albuquerque Center
Fri 11:47:56 PM 34.8467 -99.2522 147° Southeast 508 585 39,000  Level Albuquerque Center
Fri 11:48:57 PM 34.7275 -99.1600 148° Southeast 508 585 39,000  Level Albuquerque Center
Fri 11:50:03 PM 34.5819 -99.0531 149° Southeast 507 583 39,000  Level Fort Worth Center
Fri 11:51:03 PM 34.4600 -98.9600 148° Southeast 507 583 39,000  Level Fort Worth Center
Fri 11:52:03 PM 34.3422 -98.8697 148° Southeast 507 583 39,000  Level Fort Worth Center
Fri 11:53:03 PM 34.2242 -98.7825 149° Southeast 502 578 39,000  Level Fort Worth Center
Fri 11:54:03 PM 34.1042 -98.6903 148° Southeast 508 585 39,000  Level Fort Worth Center
Fri 11:55:03 PM 33.9903 -98.5933 145° Southeast 508 585 39,000  Level Fort Worth Center
Fri 11:56:03 PM 33.8956 -98.4644 132° Southeast 503 579 39,000  Level Fort Worth Center
Fri 11:57:03 PM 33.7814 -98.3706 146° Southeast 498 573 39,000  Level Fort Worth Center
Fri 11:58:03 PM 33.6694 -98.2794 146° Southeast 492 566 39,000  Level Fort Worth Center
Fri 11:59:03 PM 33.5531 -98.1861 146° Southeast 492 566 39,000  Level Fort Worth Center
Sat 12:00:03 AM 33.4431 -98.0931 145° Southeast 495 570 39,000  Level Fort Worth Center
Sat 12:01:03 AM 33.3267 -97.9978 146° Southeast 495 570 39,000  Level Fort Worth Center
Sat 12:02:03 AM 33.2269 -97.9150 145° Southeast 489 563 39,000  Level Fort Worth Center
Sat 12:03:03 AM 33.1167 -97.8178 144° Southeast 489 563 39,000  Level Fort Worth Center
Sat 12:04:03 AM 33.0019 -97.7281 147° Southeast 489 563 39,000  Level Fort Worth Center
Sat 12:05:03 AM 32.8917 -97.6361 145° Southeast 489 563 39,000  Level Fort Worth Center
Sat 12:06:03 AM 32.7811 -97.5444 145° Southeast 489 563 39,000  Level Fort Worth Center
Sat 12:07:03 AM 32.6683 -97.4553 146° Southeast 489 563 39,000  Level Fort Worth Center
Sat 12:08:03 AM 32.5517 -97.3739 150° Southeast 489 563 39,000  Level Fort Worth Center
Sat 12:09:03 AM 32.4408 -97.2831 145° Southeast 484 557 39,000  Level Fort Worth Center
Sat 12:10:03 AM 32.3322 -97.1944 145° Southeast 484 557 39,000  Level Fort Worth Center
Sat 12:11:03 AM 32.2192 -97.1039 146° Southeast 489 563 39,000  Level Fort Worth Center
Sat 12:12:03 AM 32.1083 -97.0111 145° Southeast 489 563 39,000  Level Fort Worth Center
Sat 12:13:03 AM 31.9931 -96.9186 146° Southeast 489 563 39,000  Level Fort Worth Center
Sat 12:14:03 AM 31.8717 -96.8214 146° Southeast 483 556 39,000  Level Fort Worth Center
Sat 12:15:03 AM 31.7583 -96.7317 146° Southeast 490 564 39,000  Level Fort Worth Center
Sat 12:17:05 AM 31.5325 -96.5469 145° Southeast 493 567 39,000 -264 Level Houston Center
Sat 12:18:05 AM 31.4167 -96.4550 146° Southeast 494 568 38,200 -1,934 Descending Houston Center
Sat 12:19:06 AM 31.3017 -96.3658 146° Southeast 489 563 35,100 -2,083 Descending Houston Center
Sat 12:20:06 AM 31.1875 -96.2747 146° Southeast 486 559 34,000 -1,190 Descending Houston Center
Sat 12:21:07 AM 31.0719 -96.1850 146° Southeast 489 563 32,700 -2,182 Descending Houston Center
Sat 12:22:07 AM 30.9592 -96.0967 146° Southeast 482 555 29,600 -3,056 Descending Houston Center
Sat 12:22:55 AM 30.8700 -96.0503 156° South 449 517 27,200 -3,099 Descending Houston Center
Sat 12:23:38 AM 30.7853 -96.0139 160° South 440 506 24,900 -2,959 Descending Houston Center
Sat 12:24:08 AM 30.7372 -95.9925 159° South 442 509 23,600 -3,222 Descending Houston Center
Sat 12:24:32 AM 30.6828 -95.9697 160° South 432 497 22,000 -3,500 Descending Houston Center
Sat 12:25:08 AM 30.6194 -95.9442 161° South 428 493 20,100 -3,134 Descending Houston Center
Sat 12:25:39 AM 30.5611 -95.9208 161° South 414 476 18,500 -2,852 Descending Houston Center
Sat 12:26:09 AM 30.5125 -95.8986 159° South 413 475 17,200 -3,049 Descending Houston Center
Sat 12:26:40 AM 30.4500 -95.8731 161° South 409 471 15,400 -3,100 Descending Houston Center
Sat 12:27:09 AM 30.4044 -95.8533 160° South 414 476 14,100 -2,164 Descending Houston Center
Sat 12:27:41 AM 30.3433 -95.8297 162° South 400 460 13,200 -1,475 Descending Houston Center
Sat 12:28:10 AM 30.3025 -95.8117 159° South 392 451 12,600 -1,500 Descending Houston Center
Sat 12:28:41 AM 30.2494 -95.7900 161° South 344 396 11,700 -1,500 Descending Houston Center
Sat 12:29:10 AM 30.2144 -95.7758 161° South 345 397 11,100 -1,574 Descending Houston Center
Sat 12:29:42 AM 30.1647 -95.7564 161° South 304 350 10,100 -1,770 Descending Houston Center
Sat 12:30:11 AM 30.1364 -95.7431 158° South 305 351 9,300 -2,182 Descending Houston Center
Sat 12:30:37 AM 30.0972 -95.7281 162° South 289 333 8,100 -2,300 Descending Houston Center
Sat 12:31:11 AM 30.0617 -95.7122 159° South 290 334 7,000 -2,239 Descending Houston Center
Sat 12:31:44 AM 30.0142 -95.6919 160° South 283 326 5,600 -1,967 Descending Houston Center
Sat 12:32:12 AM 29.9953 -95.6700 135° Southeast 283 326 5,000 -800 Descending Houston Center
Sat 12:32:44 AM 29.9892 -95.6247 99° East 211 243 4,800 -500 Descending Houston Center
Sat 12:33:12 AM 29.9892 -95.6036 90° East 212 244 4,500 -984 Descending Houston Center
Sat 12:33:45 AM 29.9925 -95.5667 84° East 170 196 3,800 -1,082 Descending Houston Center
Sat 12:34:13 AM 29.9939 -95.5467 85° East 182 209 3,400 -1,091 Descending Houston Center
Sat 12:34:40 AM 29.9919 -95.5136 94° East 185 213 2,800 -1,000 Descending Houston Center
Sat 12:35:13 AM 29.9931 -95.4869 87° East 183 211 2,400 -987 Descending Houston Center
Sat 12:35:59 AM 29.9933 -95.4361 90° East 181 208 1,500 -906 Descending Houston Center
Sat 12:36:59 AM 29.9933 -95.3903 90° East 139 160 800 -640 Descending Houston Center
Sat 12:37:14 AM 29.9939 -95.3825 85° East 162 186 700 -480 Descending Houston Center
Sat 12:38:14 AM 29.9947 -95.3336 89° East 149 171 200 -500 Descending Houston Center

Login

Don't have an account? Register now (free) for customized features, flight alerts, and more!